createdAt,value
2018-01-15T01:38:51.508Z,67.44
2018-01-15T01:38:52.077Z,67.44
2018-01-15T01:38:52.680Z,67.44
2018-01-15T01:38:53.278Z,67.25
2018-01-15T01:38:53.876Z,67.44
2018-01-15T01:38:54.477Z,67.25
2018-01-15T01:38:55.075Z,67.54
2018-01-15T01:38:55.676Z,67.44
2018-01-15T01:39:49.162Z,67.44
2018-01-15T01:39:49.731Z,68.10
2018-01-15T01:39:50.330Z,67.44
2018-01-15T01:39:50.929Z,67.72
2018-01-15T01:39:51.531Z,67.91
2018-01-15T01:39:52.129Z,67.72
2018-01-15T01:39:52.729Z,67.63
2018-01-15T01:39:53.328Z,67.54
2018-01-15T01:40:46.821Z,68.29
2018-01-15T01:40:47.384Z,68.29
2018-01-15T01:40:47.983Z,68.29
2018-01-15T01:40:48.582Z,68.10
2018-01-15T01:40:49.183Z,68.29
2018-01-15T01:40:49.784Z,68.39
2018-01-15T01:40:50.381Z,68.29
2018-01-15T01:40:50.983Z,68.39
2018-01-15T01:41:45.490Z,68.57
2018-01-15T01:41:46.059Z,68.48
2018-01-15T01:41:46.659Z,68.01
2018-01-15T01:41:47.259Z,68.57
2018-01-15T01:41:47.859Z,68.86
2018-01-15T01:41:48.459Z,68.57
2018-01-15T01:41:49.058Z,68.76
2018-01-15T01:41:49.656Z,68.57
2018-01-15T01:42:44.196Z,68.57
2018-01-15T01:42:44.734Z,68.67
2018-01-15T01:42:45.335Z,68.39
2018-01-15T01:42:45.934Z,68.29
2018-01-15T01:42:46.535Z,68.57
2018-01-15T01:42:47.135Z,67.72
2018-01-15T01:42:47.734Z,68.67
2018-01-15T01:42:48.332Z,68.67
2018-01-15T01:43:41.821Z,68.01
2018-01-15T01:43:42.388Z,68.10
2018-01-15T01:43:42.990Z,68.67
2018-01-15T01:43:43.590Z,68.39
2018-01-15T01:43:44.188Z,68.48
2018-01-15T01:43:44.787Z,68.20
2018-01-15T01:43:45.388Z,68.39
2018-01-15T01:43:45.986Z,68.39
2018-01-15T01:44:39.470Z,68.01
2018-01-15T01:44:40.039Z,67.91
2018-01-15T01:44:40.640Z,68.29
2018-01-15T01:44:41.240Z,68.20
2018-01-15T01:44:41.838Z,68.10
2018-01-15T01:44:42.440Z,68.29
2018-01-15T01:44:43.038Z,68.10
2018-01-15T01:44:43.670Z,67.91
2018-01-15T01:45:37.122Z,68.57
2018-01-15T01:45:37.694Z,68.48
2018-01-15T01:45:38.293Z,68.48
2018-01-15T01:45:38.892Z,68.29
2018-01-15T01:45:39.492Z,68.10
2018-01-15T01:45:40.091Z,68.39
2018-01-15T01:45:40.691Z,68.10
2018-01-15T01:45:41.289Z,68.57
2018-01-15T01:46:34.775Z,68.57
2018-01-15T01:46:35.344Z,68.67
2018-01-15T01:46:35.942Z,68.57
2018-01-15T01:46:36.545Z,68.57
2018-01-15T01:46:37.143Z,68.57
2018-01-15T01:46:37.744Z,68.48
2018-01-15T01:46:38.342Z,68.67
2018-01-15T01:46:38.942Z,68.76
2018-01-15T01:47:32.427Z,68.48
2018-01-15T01:47:32.996Z,68.01
2018-01-15T01:47:33.596Z,68.48
2018-01-15T01:47:34.196Z,68.57
2018-01-15T01:47:34.796Z,67.91
2018-01-15T01:47:35.395Z,68.48
2018-01-15T01:47:35.995Z,68.76
2018-01-15T01:47:36.595Z,68.01
2018-01-15T01:48:31.105Z,67.63
2018-01-15T01:48:31.672Z,68.39
2018-01-15T01:48:32.272Z,68.29
2018-01-15T01:48:32.869Z,68.29
2018-01-15T01:48:33.515Z,68.48
2018-01-15T01:48:34.070Z,68.48
2018-01-15T01:48:34.669Z,68.10
2018-01-15T01:48:35.267Z,68.29
2018-01-15T01:49:28.752Z,67.82
2018-01-15T01:49:29.325Z,68.01
2018-01-15T01:49:29.923Z,67.82
2018-01-15T01:49:30.524Z,67.82
2018-01-15T01:49:31.123Z,67.82
2018-01-15T01:49:31.723Z,67.82
2018-01-15T01:49:32.322Z,67.91
2018-01-15T01:49:32.927Z,67.82
2018-01-15T01:50:26.405Z,68.01
2018-01-15T01:50:26.976Z,68.29
2018-01-15T01:50:27.576Z,68.01
2018-01-15T01:50:28.175Z,68.01
2018-01-15T01:50:28.775Z,68.10
2018-01-15T01:50:29.374Z,68.20
2018-01-15T01:50:29.975Z,68.10
2018-01-15T01:50:30.574Z,68.10
2018-01-15T01:51:24.057Z,68.86
2018-01-15T01:51:24.630Z,68.76
2018-01-15T01:51:25.227Z,68.48
2018-01-15T01:51:25.825Z,68.86
2018-01-15T01:51:26.425Z,67.91
2018-01-15T01:51:27.027Z,68.57
2018-01-15T01:51:27.630Z,68.67
2018-01-15T01:51:28.228Z,68.57
2018-01-15T01:52:22.732Z,68.48
2018-01-15T01:52:23.303Z,68.57
2018-01-15T01:52:23.901Z,68.48
2018-01-15T01:52:24.501Z,68.29
2018-01-15T01:52:25.103Z,68.29
2018-01-15T01:52:25.700Z,68.48
2018-01-15T01:52:26.300Z,68.39
2018-01-15T01:52:26.902Z,68.48
2018-01-15T01:53:21.411Z,68.48
2018-01-15T01:53:21.977Z,68.20
2018-01-15T01:53:22.579Z,68.48
2018-01-15T01:53:23.179Z,68.48
2018-01-15T01:53:23.776Z,68.48
2018-01-15T01:53:24.376Z,68.57
2018-01-15T01:53:24.976Z,68.39
2018-01-15T01:53:25.575Z,68.39
2018-01-15T01:54:20.090Z,68.39
2018-01-15T01:54:20.655Z,68.57
2018-01-15T01:54:21.253Z,68.01
2018-01-15T01:54:21.853Z,68.39
2018-01-15T01:54:22.453Z,68.48
2018-01-15T01:54:23.053Z,68.39
2018-01-15T01:54:23.652Z,68.20
2018-01-15T01:54:24.252Z,68.10
2018-01-15T01:55:18.781Z,68.76
2018-01-15T01:55:19.329Z,68.67
2018-01-15T01:55:19.929Z,68.01
2018-01-15T01:55:20.529Z,68.76
2018-01-15T01:55:21.129Z,68.20
2018-01-15T01:55:21.729Z,68.57
2018-01-15T01:55:22.327Z,68.67
2018-01-15T01:55:22.928Z,69.43
2018-01-15T01:56:16.411Z,68.76
2018-01-15T01:56:16.984Z,69.05
2018-01-15T01:56:17.583Z,69.24
2018-01-15T01:56:18.183Z,69.24
2018-01-15T01:56:18.780Z,69.14
2018-01-15T01:56:19.381Z,69.24
2018-01-15T01:56:19.980Z,69.24
2018-01-15T01:56:20.581Z,69.52
2018-01-15T01:57:14.063Z,69.52
2018-01-15T01:57:14.633Z,69.62
2018-01-15T01:57:15.234Z,69.62
2018-01-15T01:57:15.833Z,69.52
2018-01-15T01:57:16.432Z,69.81
2018-01-15T01:57:17.032Z,69.62
2018-01-15T01:57:17.636Z,69.62
2018-01-15T01:57:18.233Z,69.14
2018-01-15T01:58:11.716Z,68.86
2018-01-15T01:58:12.285Z,68.86
2018-01-15T01:58:12.886Z,69.33
2018-01-15T01:58:13.485Z,68.86
2018-01-15T01:58:14.085Z,69.24
2018-01-15T01:58:14.685Z,69.52
2018-01-15T01:58:15.284Z,69.24
2018-01-15T01:58:15.884Z,69.24
2018-01-15T01:59:10.391Z,69.24
2018-01-15T01:59:10.960Z,69.62
2018-01-15T01:59:11.559Z,69.43
2018-01-15T01:59:12.159Z,69.71
2018-01-15T01:59:12.762Z,69.24
2018-01-15T01:59:13.360Z,69.52
2018-01-15T01:59:13.958Z,69.62
2018-01-15T01:59:14.560Z,69.33
2018-01-15T02:00:09.070Z,70.09
2018-01-15T02:00:09.640Z,70.18
2018-01-15T02:00:10.235Z,70.28
2018-01-15T02:00:10.835Z,70.18
2018-01-15T02:00:11.434Z,70.09
2018-01-15T02:00:12.035Z,69.90
2018-01-15T02:00:12.634Z,70.18
2018-01-15T02:00:13.234Z,70.18
2018-01-15T02:01:06.719Z,71.12
2018-01-15T02:01:07.288Z,70.75
2018-01-15T02:01:07.888Z,70.84
2018-01-15T02:01:08.488Z,71.03
2018-01-15T02:01:09.087Z,71.12
2018-01-15T02:01:09.689Z,71.12
2018-01-15T02:01:10.286Z,71.22
2018-01-15T02:01:10.887Z,71.22
2018-01-15T02:02:04.371Z,71.22
2018-01-15T02:02:04.941Z,71.22
2018-01-15T02:02:05.540Z,71.31
2018-01-15T02:02:06.139Z,71.22
2018-01-15T02:02:06.740Z,71.31
2018-01-15T02:02:07.341Z,71.41
2018-01-15T02:02:07.938Z,71.31
2018-01-15T02:02:08.538Z,71.50
2018-01-15T02:03:02.023Z,71.69
2018-01-15T02:03:02.593Z,71.88
2018-01-15T02:03:03.191Z,71.69
2018-01-15T02:03:03.790Z,72.07
2018-01-15T02:03:04.391Z,72.07
2018-01-15T02:03:04.992Z,71.88
2018-01-15T02:03:05.594Z,71.69
2018-01-15T02:03:06.190Z,72.17
2018-01-15T02:03:59.675Z,73.02
2018-01-15T02:04:00.251Z,73.02
2018-01-15T02:04:00.843Z,73.02
2018-01-15T02:04:01.446Z,73.02
2018-01-15T02:04:02.042Z,73.02
2018-01-15T02:04:02.642Z,73.11
2018-01-15T02:04:03.243Z,72.83
2018-01-15T02:04:03.841Z,72.83
2018-01-15T02:04:57.326Z,74.34
2018-01-15T02:04:57.896Z,74.34
2018-01-15T02:04:58.495Z,74.24
2018-01-15T02:04:59.094Z,74.34
2018-01-15T02:04:59.693Z,74.34
2018-01-15T02:05:00.296Z,74.05
2018-01-15T02:05:00.899Z,74.05
2018-01-15T02:05:01.494Z,74.05
2018-01-15T02:05:54.978Z,75.00
2018-01-15T02:05:55.550Z,74.24
2018-01-15T02:05:56.145Z,73.86
2018-01-15T02:05:56.746Z,74.24
2018-01-15T02:05:57.345Z,74.15
2018-01-15T02:05:57.945Z,74.05
2018-01-15T02:05:58.545Z,74.43
2018-01-15T02:05:59.144Z,74.24
2018-01-15T02:06:52.630Z,74.90
2018-01-15T02:06:53.201Z,74.90
2018-01-15T02:06:53.797Z,74.90
2018-01-15T02:06:54.398Z,75.00
2018-01-15T02:06:54.997Z,74.62
2018-01-15T02:06:55.630Z,74.95
2018-01-15T02:06:56.201Z,75.13
2018-01-15T02:06:56.799Z,74.81
2018-01-15T02:07:50.280Z,75.60
2018-01-15T02:07:50.852Z,75.85
2018-01-15T02:07:51.493Z,75.28
2018-01-15T02:07:52.049Z,75.85
2018-01-15T02:07:52.650Z,75.76
2018-01-15T02:07:53.249Z,75.85
2018-01-15T02:07:53.853Z,75.57
2018-01-15T02:07:54.449Z,75.85
2018-01-15T02:08:47.932Z,75.70
2018-01-15T02:08:48.502Z,75.51
2018-01-15T02:08:49.102Z,75.51
2018-01-15T02:08:49.701Z,75.23
2018-01-15T02:08:50.302Z,75.60
2018-01-15T02:08:50.900Z,75.23
2018-01-15T02:08:51.499Z,75.32
2018-01-15T02:08:52.106Z,75.32
2018-01-15T02:09:46.606Z,75.79
2018-01-15T02:09:47.179Z,75.79
2018-01-15T02:09:47.777Z,76.26
2018-01-15T02:09:48.375Z,75.79
2018-01-15T02:09:48.977Z,75.51
2018-01-15T02:09:49.576Z,75.51
2018-01-15T02:09:50.175Z,76.17
2018-01-15T02:09:50.778Z,76.26
2018-01-15T02:10:45.282Z,76.93
2018-01-15T02:10:45.852Z,76.93
2018-01-15T02:10:46.454Z,77.02
2018-01-15T02:10:47.052Z,76.93
2018-01-15T02:10:47.652Z,76.93
2018-01-15T02:10:48.253Z,76.83
2018-01-15T02:10:48.851Z,76.83
2018-01-15T02:10:49.452Z,77.02
2018-01-15T02:11:43.956Z,77.87
2018-01-15T02:11:44.532Z,78.25
2018-01-15T02:11:45.131Z,78.25
2018-01-15T02:11:45.725Z,77.97
2018-01-15T02:11:46.328Z,77.69
2018-01-15T02:11:46.926Z,77.87
2018-01-15T02:11:47.527Z,77.69
2018-01-15T02:11:48.127Z,77.78
2018-01-15T02:12:42.635Z,78.91
2018-01-15T02:12:43.204Z,78.91
2018-01-15T02:12:43.802Z,78.72
2018-01-15T02:12:44.403Z,78.72
2018-01-15T02:12:45.003Z,78.72
2018-01-15T02:12:45.619Z,78.81
2018-01-15T02:12:46.202Z,78.53
2018-01-15T02:12:46.801Z,78.63
2018-01-15T02:13:40.287Z,78.81
2018-01-15T02:13:40.857Z,78.81
2018-01-15T02:13:41.456Z,78.81
2018-01-15T02:13:42.055Z,78.72
2018-01-15T02:13:42.655Z,78.91
2018-01-15T02:13:43.256Z,78.91
2018-01-15T02:13:43.855Z,78.81
2018-01-15T02:13:44.455Z,79.10
2018-01-15T02:14:38.965Z,79.57
2018-01-15T02:14:39.529Z,79.48
2018-01-15T02:14:40.129Z,79.38
2018-01-15T02:14:40.729Z,79.57
2018-01-15T02:14:41.329Z,79.29
2018-01-15T02:14:41.929Z,79.57
2018-01-15T02:14:42.530Z,79.67
2018-01-15T02:14:43.131Z,79.76
2018-01-15T02:15:36.614Z,79.86
2018-01-15T02:15:37.183Z,79.86
2018-01-15T02:15:37.784Z,79.95
2018-01-15T02:15:38.382Z,80.05
2018-01-15T02:15:38.982Z,79.76
2018-01-15T02:15:39.583Z,79.95
2018-01-15T02:15:40.182Z,79.95
2018-01-15T02:15:40.781Z,79.76
2018-01-15T02:16:35.295Z,79.86
2018-01-15T02:16:35.858Z,79.86
2018-01-15T02:16:36.456Z,80.05
2018-01-15T02:16:37.057Z,80.33
2018-01-15T02:16:37.663Z,79.86
2018-01-15T02:16:38.256Z,80.05
2018-01-15T02:16:38.856Z,80.05
2018-01-15T02:16:39.457Z,79.95
2018-01-15T02:17:32.944Z,80.80
2018-01-15T02:17:33.510Z,80.80
2018-01-15T02:17:34.112Z,80.80
2018-01-15T02:17:34.712Z,80.80
2018-01-15T02:17:35.310Z,80.80
2018-01-15T02:17:35.911Z,80.90
2018-01-15T02:17:36.512Z,80.80
2018-01-15T02:17:37.109Z,80.80
2018-01-15T02:18:30.595Z,81.65
2018-01-15T02:18:31.162Z,81.65
2018-01-15T02:18:31.763Z,81.65
2018-01-15T02:18:32.361Z,81.56
2018-01-15T02:18:32.962Z,81.65
2018-01-15T02:18:33.562Z,81.65
2018-01-15T02:18:34.162Z,81.37
2018-01-15T02:18:34.768Z,81.65
2018-01-15T02:19:28.243Z,81.84
2018-01-15T02:19:28.814Z,82.03
2018-01-15T02:19:29.416Z,81.84
2018-01-15T02:19:30.014Z,82.03
2018-01-15T02:19:30.616Z,82.03
2018-01-15T02:19:31.260Z,81.74
2018-01-15T02:19:31.812Z,81.84
2018-01-15T02:19:32.413Z,82.03
2018-01-15T02:20:25.896Z,82.60
2018-01-15T02:20:26.465Z,82.60
2018-01-15T02:20:27.066Z,82.60
2018-01-15T02:20:27.666Z,82.60
2018-01-15T02:20:28.272Z,82.60
2018-01-15T02:20:28.864Z,82.79
2018-01-15T02:20:29.464Z,82.50
2018-01-15T02:20:30.064Z,82.69
2018-01-15T02:21:23.548Z,82.41
2018-01-15T02:21:24.117Z,82.79
2018-01-15T02:21:24.717Z,82.69
2018-01-15T02:21:25.317Z,82.69
2018-01-15T02:21:25.915Z,82.79
2018-01-15T02:21:26.516Z,82.22
2018-01-15T02:21:27.116Z,82.69
2018-01-15T02:21:27.715Z,82.79
2018-01-15T02:22:21.199Z,82.69
2018-01-15T02:22:21.770Z,82.69
2018-01-15T02:22:22.369Z,82.50
2018-01-15T02:22:22.968Z,82.60
2018-01-15T02:22:23.568Z,82.41
2018-01-15T02:22:24.169Z,82.31
2018-01-15T02:22:24.772Z,82.31
2018-01-15T02:22:25.367Z,82.31
2018-01-15T02:23:18.851Z,83.45
2018-01-15T02:23:19.421Z,83.45
2018-01-15T02:23:20.020Z,83.54
2018-01-15T02:23:20.620Z,83.45
2018-01-15T02:23:21.221Z,83.45
2018-01-15T02:23:21.826Z,83.45
2018-01-15T02:23:22.421Z,83.45
2018-01-15T02:23:23.019Z,83.36
2018-01-15T02:24:17.525Z,83.36
2018-01-15T02:24:18.096Z,83.36
2018-01-15T02:24:18.693Z,83.36
2018-01-15T02:24:19.295Z,83.36
2018-01-15T02:24:19.893Z,83.36
2018-01-15T02:24:20.496Z,83.45
2018-01-15T02:24:21.095Z,83.36
2018-01-15T02:24:21.695Z,83.36
2018-01-15T02:25:15.178Z,84.01
2018-01-15T02:25:15.746Z,83.92
2018-01-15T02:25:16.347Z,84.01
2018-01-15T02:25:16.947Z,84.20
2018-01-15T02:25:17.546Z,84.20
2018-01-15T02:25:18.146Z,83.92
2018-01-15T02:25:18.746Z,84.01
2018-01-15T02:25:19.346Z,83.92
2018-01-15T02:26:12.831Z,83.64
2018-01-15T02:26:13.400Z,83.26
2018-01-15T02:26:13.999Z,83.64
2018-01-15T02:26:14.599Z,83.64
2018-01-15T02:26:15.199Z,83.64
2018-01-15T02:26:15.800Z,83.45
2018-01-15T02:26:16.400Z,83.45
2018-01-15T02:26:16.999Z,83.45
2018-01-15T02:27:11.505Z,84.01
2018-01-15T02:27:12.074Z,84.01
2018-01-15T02:27:12.676Z,84.01
2018-01-15T02:27:13.274Z,84.20
2018-01-15T02:27:13.873Z,84.20
2018-01-15T02:27:14.474Z,84.20
2018-01-15T02:27:15.074Z,84.11
2018-01-15T02:27:15.672Z,84.11
2018-01-15T02:28:10.181Z,84.58
2018-01-15T02:28:10.750Z,84.58
2018-01-15T02:28:11.349Z,84.58
2018-01-15T02:28:11.949Z,84.58
2018-01-15T02:28:12.548Z,84.68
2018-01-15T02:28:13.149Z,84.39
2018-01-15T02:28:13.747Z,84.58
2018-01-15T02:28:14.349Z,84.68
2018-01-15T02:29:07.833Z,85.62
2018-01-15T02:29:08.402Z,85.62
2018-01-15T02:29:09.001Z,85.24
2018-01-15T02:29:09.601Z,85.43
2018-01-15T02:29:10.202Z,85.43
2018-01-15T02:29:10.803Z,85.43
2018-01-15T02:29:11.401Z,85.43
2018-01-15T02:29:12.002Z,85.34
2018-01-15T02:30:06.509Z,85.05
2018-01-15T02:30:07.075Z,85.15
2018-01-15T02:30:07.678Z,85.15
2018-01-15T02:30:08.278Z,85.24
2018-01-15T02:30:08.878Z,85.05
2018-01-15T02:30:09.477Z,85.24
2018-01-15T02:30:10.076Z,85.15
2018-01-15T02:30:10.675Z,85.24
2018-01-15T02:31:04.159Z,85.53
2018-01-15T02:31:04.736Z,85.53
2018-01-15T02:31:05.329Z,85.53
2018-01-15T02:31:05.928Z,85.34
2018-01-15T02:31:06.538Z,85.53
2018-01-15T02:31:07.131Z,85.53
2018-01-15T02:31:07.729Z,85.53
2018-01-15T02:31:08.328Z,85.62
2018-01-15T02:32:01.811Z,86.00
2018-01-15T02:32:02.383Z,85.81
2018-01-15T02:32:02.981Z,85.81
2018-01-15T02:32:03.584Z,86.38
2018-01-15T02:32:04.180Z,85.81
2018-01-15T02:32:04.789Z,86.19
2018-01-15T02:32:05.382Z,85.81
2018-01-15T02:32:05.984Z,86.19
2018-01-15T02:32:59.465Z,86.19
2018-01-15T02:33:00.032Z,85.81
2018-01-15T02:33:00.633Z,86.10
2018-01-15T02:33:01.238Z,86.19
2018-01-15T02:33:01.832Z,86.10
2018-01-15T02:33:02.432Z,86.19
2018-01-15T02:33:03.035Z,86.10
2018-01-15T02:33:03.633Z,86.00
2018-01-15T02:33:57.115Z,86.00
2018-01-15T02:33:57.689Z,86.10
2018-01-15T02:33:58.289Z,86.19
2018-01-15T02:33:58.886Z,86.10
2018-01-15T02:33:59.484Z,86.19
2018-01-15T02:34:00.085Z,85.81
2018-01-15T02:34:00.684Z,86.19
2018-01-15T02:34:01.297Z,85.91
2018-01-15T02:52:38.708Z,85.01
2018-01-15T02:52:39.276Z,85.11
2018-01-15T02:52:39.876Z,85.11
2018-01-15T02:52:40.474Z,85.01
2018-01-15T02:52:41.076Z,85.01
2018-01-15T02:52:41.675Z,85.01
2018-01-15T02:52:42.273Z,85.01
2018-01-15T02:52:42.875Z,85.20
2018-01-15T02:53:37.384Z,84.54
2018-01-15T02:53:37.949Z,84.45
2018-01-15T02:53:38.551Z,84.54
2018-01-15T02:53:39.150Z,84.54
2018-01-15T02:53:39.749Z,84.64
2018-01-15T02:53:40.349Z,84.64
2018-01-15T02:53:40.950Z,84.45
2018-01-15T02:53:41.548Z,84.54
2018-01-15T02:54:35.034Z,83.78
2018-01-15T02:54:35.606Z,84.07
2018-01-15T02:54:36.202Z,83.78
2018-01-15T02:54:36.803Z,83.78
2018-01-15T02:54:37.403Z,84.16
2018-01-15T02:54:38.003Z,83.78
2018-01-15T02:54:38.601Z,83.78
2018-01-15T02:54:39.200Z,84.07
2018-01-15T02:55:32.686Z,83.59
2018-01-15T02:55:33.257Z,83.69
2018-01-15T02:55:33.856Z,83.69
2018-01-15T02:55:34.457Z,83.59
2018-01-15T02:55:35.056Z,83.69
2018-01-15T02:55:35.655Z,83.69
2018-01-15T02:55:36.254Z,83.69
2018-01-15T02:55:36.855Z,83.78
2018-01-15T02:56:30.339Z,83.22
2018-01-15T02:56:30.908Z,82.93
2018-01-15T02:56:31.508Z,83.31
2018-01-15T02:56:32.109Z,83.22
2018-01-15T02:56:32.708Z,83.22
2018-01-15T02:56:33.307Z,83.22
2018-01-15T02:56:33.907Z,83.31
2018-01-15T02:56:34.506Z,83.03
2018-01-15T02:57:27.998Z,82.75
2018-01-15T02:57:28.560Z,82.46
2018-01-15T02:57:29.160Z,82.65
2018-01-15T02:57:29.758Z,82.75
2018-01-15T02:57:30.358Z,82.37
2018-01-15T02:57:30.959Z,82.65
2018-01-15T02:57:31.559Z,82.56
2018-01-15T02:57:32.158Z,82.28
2018-01-15T02:58:26.672Z,81.99
2018-01-15T02:58:27.235Z,81.99
2018-01-15T02:58:27.835Z,81.99
2018-01-15T02:58:28.436Z,82.28
2018-01-15T02:58:29.034Z,81.90
2018-01-15T02:58:29.634Z,81.90
2018-01-15T02:58:30.233Z,81.99
2018-01-15T02:58:30.836Z,81.99
2018-01-15T02:59:25.340Z,81.71
2018-01-15T02:59:25.911Z,82.09
2018-01-15T02:59:26.511Z,82.09
2018-01-15T02:59:27.110Z,82.09
2018-01-15T02:59:27.709Z,82.09
2018-01-15T02:59:28.311Z,82.28
2018-01-15T02:59:28.910Z,82.09
2018-01-15T02:59:29.515Z,81.99
2018-01-15T03:00:22.993Z,81.61
2018-01-15T03:00:23.564Z,81.52
2018-01-15T03:00:24.164Z,81.52
2018-01-15T03:00:24.763Z,81.52
2018-01-15T03:00:25.363Z,81.61
2018-01-15T03:00:25.964Z,81.52
2018-01-15T03:00:26.562Z,81.61
2018-01-15T03:00:27.161Z,81.33
2018-01-15T03:01:20.645Z,81.14
2018-01-15T03:01:21.216Z,81.14
2018-01-15T03:01:21.815Z,81.33
2018-01-15T03:01:22.419Z,81.04
2018-01-15T03:01:23.014Z,80.76
2018-01-15T03:01:23.614Z,81.14
2018-01-15T03:01:24.214Z,80.76
2018-01-15T03:01:24.814Z,80.66
2018-01-15T03:02:19.321Z,79.82
2018-01-15T03:02:19.893Z,79.82
2018-01-15T03:02:20.490Z,79.63
2018-01-15T03:02:21.089Z,79.82
2018-01-15T03:02:21.689Z,79.72
2018-01-15T03:02:22.290Z,80.10
2018-01-15T03:02:22.890Z,80.10
2018-01-15T03:02:23.491Z,80.10
2018-01-15T03:03:17.996Z,80.85
2018-01-15T03:03:18.567Z,80.85
2018-01-15T03:03:19.165Z,80.66
2018-01-15T03:03:19.765Z,80.95
2018-01-15T03:03:20.365Z,80.38
2018-01-15T03:03:20.964Z,80.85
2018-01-15T03:03:21.565Z,80.95
2018-01-15T03:03:22.164Z,80.85
2018-01-15T03:04:15.651Z,81.04
2018-01-15T03:04:16.219Z,81.04
2018-01-15T03:04:16.818Z,81.04
2018-01-15T03:04:17.419Z,81.04
2018-01-15T03:04:18.019Z,80.76
2018-01-15T03:04:18.623Z,80.76
2018-01-15T03:04:19.223Z,80.66
2018-01-15T03:04:19.818Z,80.85
2018-01-15T03:05:14.324Z,81.52
2018-01-15T03:05:14.894Z,81.14
2018-01-15T03:05:15.493Z,80.85
2018-01-15T03:05:16.092Z,81.42
2018-01-15T03:05:16.695Z,80.95
2018-01-15T03:05:17.293Z,81.61
2018-01-15T03:05:17.891Z,81.52
2018-01-15T03:05:18.495Z,81.33
2018-01-15T03:06:13.000Z,80.95
2018-01-15T03:06:13.570Z,80.95
2018-01-15T03:06:14.168Z,80.99
2018-01-15T03:06:14.769Z,80.95
2018-01-15T03:06:15.368Z,81.04
2018-01-15T03:06:15.968Z,81.04
2018-01-15T03:06:16.568Z,81.04
2018-01-15T03:06:17.168Z,81.04
2018-01-15T03:07:11.678Z,81.52
2018-01-15T03:07:12.248Z,81.52
2018-01-15T03:07:12.844Z,81.42
2018-01-15T03:07:13.444Z,81.52
2018-01-15T03:07:14.045Z,81.52
2018-01-15T03:07:14.645Z,81.61
2018-01-15T03:07:15.244Z,81.52
2018-01-15T03:07:15.842Z,81.52
2018-01-15T03:08:09.329Z,81.23
2018-01-15T03:08:09.898Z,81.42
2018-01-15T03:08:10.498Z,82.09
2018-01-15T03:08:11.098Z,82.18
2018-01-15T03:08:11.699Z,82.09
2018-01-15T03:08:12.298Z,82.09
2018-01-15T03:08:12.901Z,81.80
2018-01-15T03:08:13.497Z,81.99
2018-01-15T03:09:08.005Z,81.71
2018-01-15T03:09:08.575Z,81.99
2018-01-15T03:09:09.173Z,81.90
2018-01-15T03:09:09.775Z,82.09
2018-01-15T03:09:10.371Z,81.71
2018-01-15T03:09:10.970Z,81.80
2018-01-15T03:09:11.572Z,81.80
2018-01-15T03:09:12.175Z,81.80
2018-01-15T03:10:07.192Z,82.65
2018-01-15T03:10:07.760Z,82.56
2018-01-15T03:10:08.359Z,82.46
2018-01-15T03:10:08.960Z,82.56
2018-01-15T03:10:09.559Z,82.65
2018-01-15T03:10:10.158Z,82.65
2018-01-15T03:11:04.741Z,82.75
2018-01-15T03:11:05.312Z,82.65
2018-01-15T03:11:05.911Z,82.75
2018-01-15T03:11:06.510Z,82.65
2018-01-15T03:11:07.109Z,83.22
2018-01-15T03:11:07.709Z,82.65
2018-01-15T03:11:08.311Z,82.65
2018-01-15T03:12:01.882Z,83.12
2018-01-15T03:12:02.457Z,83.12
2018-01-15T03:12:03.050Z,83.31
2018-01-15T03:12:03.650Z,83.12
2018-01-15T03:12:04.249Z,83.12
2018-01-15T03:12:04.852Z,83.03
2018-01-15T03:12:05.446Z,82.93
2018-01-15T03:12:06.049Z,83.03
2018-01-15T03:13:00.555Z,83.22
2018-01-15T03:13:01.125Z,83.22
2018-01-15T03:13:01.729Z,83.31
2018-01-15T03:13:02.327Z,83.22
2018-01-15T03:13:02.925Z,83.12
2018-01-15T03:13:03.524Z,83.12
2018-01-15T03:13:04.126Z,83.03
2018-01-15T03:13:04.726Z,83.31
2018-01-15T03:13:58.208Z,83.69
2018-01-15T03:13:58.777Z,83.69
2018-01-15T03:13:59.376Z,83.59
2018-01-15T03:13:59.977Z,83.69
2018-01-15T03:14:00.577Z,83.40
2018-01-15T03:14:01.179Z,83.40
2018-01-15T03:14:01.778Z,83.78
2018-01-15T03:14:02.378Z,83.78
2018-01-15T03:14:55.861Z,82.84
2018-01-15T03:14:56.430Z,82.93
2018-01-15T03:14:57.030Z,82.84
2018-01-15T03:14:57.633Z,83.07
2018-01-15T03:14:58.227Z,82.93
2018-01-15T03:14:58.830Z,83.17
2018-01-15T03:14:59.432Z,83.03
2018-01-15T03:15:00.029Z,82.98
2018-01-15T03:15:54.533Z,83.03
2018-01-15T03:15:55.104Z,82.98
2018-01-15T03:15:55.703Z,83.12
2018-01-15T03:15:56.304Z,82.98
2018-01-15T03:15:56.904Z,82.84
2018-01-15T03:15:57.504Z,82.93
2018-01-15T03:15:58.102Z,82.84
2018-01-15T03:15:58.702Z,82.84
2018-01-15T03:16:52.188Z,82.79
2018-01-15T03:16:52.757Z,82.60
2018-01-15T03:16:53.355Z,82.60
2018-01-15T03:16:53.956Z,82.69
2018-01-15T03:16:54.556Z,82.65
2018-01-15T03:16:55.154Z,82.75
2018-01-15T03:16:55.759Z,82.69
2018-01-15T03:16:56.356Z,82.69
2018-01-15T03:17:49.839Z,83.64
2018-01-15T03:17:50.414Z,83.45
2018-01-15T03:17:51.008Z,83.45
2018-01-15T03:17:51.606Z,83.45
2018-01-15T03:17:52.207Z,83.45
2018-01-15T03:17:52.808Z,83.64
2018-01-15T03:17:53.408Z,83.64
2018-01-15T03:17:54.005Z,83.54
2018-01-15T03:18:50.051Z,83.64
2018-01-15T03:18:50.622Z,83.07
2018-01-15T03:18:51.220Z,83.64
2018-01-15T03:18:51.819Z,83.83
2018-01-15T03:18:52.418Z,83.73
2018-01-15T03:18:53.021Z,83.83
2018-01-15T03:19:47.088Z,84.01
2018-01-15T03:19:47.657Z,84.01
2018-01-15T03:19:48.260Z,84.11
2018-01-15T03:19:48.856Z,84.01
2018-01-15T03:19:49.456Z,84.11
2018-01-15T03:19:50.055Z,84.11
2018-01-15T03:19:50.656Z,84.01
2018-01-15T03:19:51.255Z,84.20
2018-01-15T03:20:45.763Z,84.68
2018-01-15T03:20:46.333Z,84.68
2018-01-15T03:20:46.931Z,84.49
2018-01-15T03:20:47.531Z,84.30
2018-01-15T03:20:48.131Z,84.49
2018-01-15T03:20:48.733Z,84.68
2018-01-15T03:20:49.331Z,84.30
2018-01-15T03:20:49.931Z,84.49
2018-01-15T03:21:44.439Z,84.77
2018-01-15T03:21:45.007Z,85.05
2018-01-15T03:21:45.607Z,84.86
2018-01-15T03:21:46.209Z,84.86
2018-01-15T03:21:46.808Z,84.68
2018-01-15T03:21:47.406Z,84.68
2018-01-15T03:21:48.012Z,85.05
2018-01-15T03:21:48.605Z,84.86
2018-01-15T03:22:42.097Z,85.24
2018-01-15T03:22:42.659Z,85.15
2018-01-15T03:22:43.257Z,85.24
2018-01-15T03:22:43.858Z,85.43
2018-01-15T03:22:44.456Z,85.43
2018-01-15T03:22:45.060Z,85.43
2018-01-15T03:22:45.657Z,85.15
2018-01-15T03:22:46.256Z,85.34
2018-01-15T03:23:40.768Z,86.29
2018-01-15T03:23:41.342Z,86.00
2018-01-15T03:23:41.934Z,86.19
2018-01-15T03:23:42.535Z,86.29
2018-01-15T03:23:43.134Z,86.19
2018-01-15T03:23:43.734Z,86.19
2018-01-15T03:23:44.332Z,86.29
2018-01-15T03:23:44.934Z,86.38
2018-01-15T03:24:38.418Z,86.57
2018-01-15T03:24:38.986Z,86.38
2018-01-15T03:24:39.587Z,86.29
2018-01-15T03:24:40.189Z,86.29
2018-01-15T03:24:40.788Z,86.29
2018-01-15T03:24:41.388Z,86.38
2018-01-15T03:24:41.986Z,86.29
2018-01-15T03:24:42.585Z,86.38
2018-01-15T03:25:36.071Z,86.66
2018-01-15T03:25:36.640Z,86.57
2018-01-15T03:25:37.242Z,86.38
2018-01-15T03:25:37.838Z,86.38
2018-01-15T03:25:38.438Z,86.57
2018-01-15T03:25:39.043Z,86.38
2018-01-15T03:25:39.638Z,86.47
2018-01-15T03:25:40.237Z,86.76
2018-01-15T03:26:34.746Z,86.29
2018-01-15T03:26:35.314Z,86.10
2018-01-15T03:26:35.914Z,86.29
2018-01-15T03:26:36.514Z,86.29
2018-01-15T03:26:37.116Z,86.00
2018-01-15T03:26:37.717Z,86.29
2018-01-15T03:26:38.313Z,86.29
2018-01-15T03:26:38.913Z,86.19
2018-01-15T03:27:33.420Z,86.85
2018-01-15T03:27:33.989Z,87.04
2018-01-15T03:27:34.589Z,86.76
2018-01-15T03:27:35.188Z,86.85
2018-01-15T03:27:35.789Z,86.85
2018-01-15T03:27:36.389Z,86.85
2018-01-15T03:27:36.998Z,87.13
2018-01-15T03:27:37.588Z,87.13
2018-01-15T03:28:32.097Z,87.13
2018-01-15T03:28:32.669Z,87.13
2018-01-15T03:28:33.265Z,87.13
2018-01-15T03:28:33.865Z,87.04
2018-01-15T03:28:34.465Z,87.23
2018-01-15T03:28:35.063Z,87.61
2018-01-15T03:28:35.667Z,87.13
2018-01-15T03:28:36.270Z,87.42
2018-01-15T03:29:29.749Z,87.51
2018-01-15T03:29:30.316Z,87.42
2018-01-15T03:29:30.916Z,87.61
2018-01-15T03:29:31.518Z,87.61
2018-01-15T03:29:32.117Z,87.61
2018-01-15T03:29:32.716Z,87.61
2018-01-15T03:29:33.318Z,87.70
2018-01-15T03:29:33.918Z,87.70
2018-01-15T03:30:27.404Z,87.70
2018-01-15T03:30:27.969Z,87.61